Time;durP1;ratioP1;P1;durP2;ratioP2;P2;SDS_P1;SDS_P2;PMS_P1;PMS_P2;Temp;Humidity;BMP_temperature;BMP_pressure;BME280_temperature;BME280_humidity;BME280_pressure;Samples;Min_cycle;Max_cycle;Signal;HPM_P1;HPM_P2
2024/03/11 00:01:28;;;;;;;71.97;34.05;;;8.20;99.90;;;;;;6277577;28;20098;-84
2024/03/11 00:04:30;;;;;;;77.30;34.85;;;8.10;99.90;;;;;;6277513;28;20135;-83
2024/03/11 00:07:36;;;;;;;70.80;34.97;;;8.20;99.90;;;;;;6295092;28;20059;-82
2024/03/11 00:10:38;;;;;;;67.80;34.10;;;8.10;99.90;;;;;;6313677;28;20051;-82
2024/03/11 00:13:40;;;;;;;72.57;35.05;;;8.10;99.90;;;;;;6272262;28;20049;-82
2024/03/11 00:16:42;;;;;;;68.07;33.67;;;8.20;99.90;;;;;;6278049;28;20044;-83
2024/03/11 00:19:44;;;;;;;74.43;34.80;;;8.10;99.90;;;;;;6276954;28;20052;-83
2024/03/11 00:22:46;;;;;;;73.60;33.80;;;8.10;99.90;;;;;;6295178;28;20049;-83
2024/03/11 00:25:48;;;;;;;72.63;34.92;;;8.10;99.90;;;;;;6277173;28;20135;-82
2024/03/11 00:28:50;;;;;;;67.28;34.25;;;8.10;99.90;;;;;;6257238;28;20059;-83
2024/03/11 00:31:52;;;;;;;74.57;34.65;;;8.10;99.90;;;;;;6276618;28;20048;-83
2024/03/11 00:34:53;;;;;;;70.07;34.53;;;8.10;99.90;;;;;;6276813;28;20052;-83
2024/03/11 00:37:55;;;;;;;70.57;34.55;;;8.10;99.90;;;;;;6294593;28;20410;-82
2024/03/11 00:40:57;;;;;;;70.22;34.92;;;8.10;99.90;;;;;;6276763;28;20063;-82
2024/03/11 00:43:59;;;;;;;71.85;34.13;;;8.00;99.90;;;;;;6239860;28;383228;-83
2024/03/11 00:47:02;;;;;;;68.70;33.58;;;8.00;99.90;;;;;;6282892;28;20052;-83
2024/03/11 00:50:06;;;;;;;70.72;33.95;;;8.10;99.90;;;;;;6299640;28;20060;-83
2024/03/11 00:53:08;;;;;;;69.82;34.95;;;8.00;99.90;;;;;;6277797;28;20190;-83
2024/03/11 00:56:10;;;;;;;72.13;34.97;;;8.00;99.90;;;;;;6277133;28;20083;-82
2024/03/11 00:59:14;;;;;;;76.28;35.58;;;8.00;99.90;;;;;;6258566;28;20080;-82
2024/03/11 01:02:15;;;;;;;77.25;36.10;;;7.90;99.90;;;;;;6299614;28;20051;-81
2024/03/11 01:05:17;;;;;;;74.50;36.35;;;7.90;99.90;;;;;;6277521;28;20419;-82
2024/03/11 01:08:19;;;;;;;77.70;36.83;;;8.00;99.90;;;;;;6292733;28;20040;-82
2024/03/11 01:11:20;;;;;;;78.10;36.75;;;7.90;99.90;;;;;;6277028;28;20055;-82
2024/03/11 01:14:23;;;;;;;76.65;36.42;;;7.90;99.90;;;;;;6276340;28;20067;-82
2024/03/11 01:17:25;;;;;;;81.20;38.10;;;8.00;99.90;;;;;;6277831;28;20056;-82
2024/03/11 01:20:29;;;;;;;79.95;37.45;;;8.00;99.90;;;;;;6276479;28;20412;-82
2024/03/11 01:23:31;;;;;;;77.38;36.92;;;8.00;99.90;;;;;;6276364;28;20052;-82
2024/03/11 01:26:32;;;;;;;78.38;35.92;;;8.10;99.90;;;;;;6275951;28;20146;-82
2024/03/11 01:29:34;;;;;;;82.63;37.05;;;8.10;99.90;;;;;;6257846;28;20058;-82
2024/03/11 01:32:44;;;;;;;77.13;36.53;;;8.10;99.90;;;;;;6269704;28;20053;-82
2024/03/11 01:35:46;;;;;;;76.80;37.72;;;8.10;99.90;;;;;;6268266;28;20160;-82
2024/03/11 01:38:48;;;;;;;78.95;37.78;;;8.10;99.90;;;;;;6276838;28;20053;-83
2024/03/11 01:41:50;;;;;;;83.63;38.70;;;8.10;99.90;;;;;;6277720;28;20759;-83
2024/03/11 01:44:51;;;;;;;82.28;38.78;;;8.10;99.90;;;;;;6264379;28;20090;-83
2024/03/11 01:47:53;;;;;;;83.15;39.45;;;8.00;99.90;;;;;;6277612;28;20688;-83
2024/03/11 01:50:55;;;;;;;87.88;38.95;;;8.00;99.90;;;;;;6294393;28;20057;-82
2024/03/11 01:53:56;;;;;;;87.88;39.25;;;8.00;99.90;;;;;;6293997;28;20056;-82
2024/03/11 01:57:01;;;;;;;89.57;39.95;;;8.00;99.90;;;;;;6275752;28;20052;-82
2024/03/11 02:00:08;;;;;;;87.38;38.22;;;7.90;99.90;;;;;;6257686;28;20147;-82
2024/03/11 02:03:10;;;;;;;89.18;39.58;;;7.90;99.90;;;;;;6269071;28;20068;-82
2024/03/11 02:06:11;;;;;;;87.07;39.75;;;7.90;99.90;;;;;;6275583;28;20052;-82
2024/03/11 02:09:14;;;;;;;93.57;41.33;;;7.90;99.90;;;;;;6273879;28;20060;-81
2024/03/11 02:12:18;;;;;;;94.50;40.88;;;7.90;99.90;;;;;;6275397;28;20093;-82
2024/03/11 02:15:20;;;;;;;92.63;41.20;;;7.90;99.90;;;;;;6285816;28;20063;-81
2024/03/11 02:18:22;;;;;;;96.75;39.30;;;7.90;99.90;;;;;;6269019;28;20141;-81
2024/03/11 02:21:24;;;;;;;90.50;39.92;;;7.90;99.90;;;;;;6293071;28;20055;-82
2024/03/11 02:24:26;;;;;;;97.03;40.53;;;7.90;99.90;;;;;;6292728;28;20377;-81
2024/03/11 02:27:27;;;;;;;95.78;39.65;;;7.90;99.90;;;;;;6293820;28;20052;-82
2024/03/11 02:30:29;;;;;;;95.50;40.92;;;8.00;99.90;;;;;;6260299;28;20055;-81
2024/03/11 02:33:32;;;;;;;95.43;40.63;;;7.90;99.90;;;;;;6293054;28;20527;-81
2024/03/11 02:36:35;;;;;;;100.15;42.00;;;7.90;99.90;;;;;;6275128;28;20052;-82
2024/03/11 02:39:39;;;;;;;92.38;39.90;;;8.00;99.90;;;;;;6292870;28;20048;-81
2024/03/11 02:42:41;;;;;;;105.38;43.85;;;8.00;99.90;;;;;;6293124;28;20040;-81
2024/03/11 02:45:45;;;;;;;100.07;41.63;;;7.90;99.90;;;;;;6283454;28;20141;-81
2024/03/11 02:48:46;;;;;;;97.15;41.88;;;8.00;99.90;;;;;;6293169;28;20057;-81
2024/03/11 02:51:48;;;;;;;98.55;42.25;;;7.90;99.90;;;;;;6293594;28;20515;-82
2024/03/11 02:54:53;;;;;;;95.60;41.33;;;7.90;99.90;;;;;;6279413;28;20052;-82
2024/03/11 02:57:55;;;;;;;96.50;41.53;;;7.90;99.90;;;;;;6280719;28;20091;-82
2024/03/11 03:00:57;;;;;;;94.85;40.97;;;8.00;99.90;;;;;;6279659;28;20049;-81
2024/03/11 03:03:58;;;;;;;96.43;41.60;;;8.00;99.90;;;;;;6297377;28;20052;-82
2024/03/11 03:07:00;;;;;;;100.47;41.97;;;7.90;99.90;;;;;;6279647;28;20053;-82
2024/03/11 03:10:05;;;;;;;105.82;44.40;;;7.90;99.90;;;;;;6314899;28;20518;-82
2024/03/11 03:13:08;;;;;;;103.95;42.78;;;7.90;99.90;;;;;;6288058;28;20414;-82
2024/03/11 03:16:16;;;;;;;110.85;45.60;;;7.80;99.90;;;;;;6302675;28;20582;-80
2024/03/11 03:19:18;;;;;;;110.05;43.42;;;7.90;99.90;;;;;;6284125;28;20058;-81
2024/03/11 03:22:21;;;;;;;106.63;41.75;;;7.80;99.90;;;;;;6300281;28;20072;-81
2024/03/11 03:25:30;;;;;;;102.80;42.90;;;7.80;99.90;;;;;;6297066;28;20052;-81
2024/03/11 03:28:32;;;;;;;110.10;45.65;;;7.80;99.90;;;;;;6243750;28;20442;-81
2024/03/11 03:31:34;;;;;;;111.22;43.75;;;7.80;99.90;;;;;;6309411;28;20058;-81
2024/03/11 03:34:35;;;;;;;112.03;44.08;;;7.80;99.90;;;;;;6280500;28;20053;-80
2024/03/11 03:37:37;;;;;;;111.25;44.22;;;7.80;99.90;;;;;;6296094;28;20059;-80
2024/03/11 03:40:38;;;;;;;110.22;43.00;;;7.90;99.90;;;;;;6296403;28;20048;-81
2024/03/11 03:43:40;;;;;;;107.53;41.75;;;7.80;99.90;;;;;;6278530;28;20459;-81
2024/03/11 03:46:42;;;;;;;106.85;42.70;;;7.80;99.90;;;;;;6319976;28;20055;-81
2024/03/11 03:49:43;;;;;;;107.70;43.28;;;7.80;99.90;;;;;;6296525;28;20109;-80
2024/03/11 03:52:45;;;;;;;111.72;43.03;;;7.70;99.90;;;;;;6278199;28;20443;-81
2024/03/11 03:55:47;;;;;;;104.85;43.25;;;7.70;99.90;;;;;;6296055;28;20055;-81
2024/03/11 03:58:48;;;;;;;102.50;42.58;;;7.80;99.90;;;;;;6290422;28;20506;-81
2024/03/11 04:01:50;;;;;;;106.57;42.25;;;7.80;99.90;;;;;;6303855;28;20048;-81
2024/03/11 04:04:52;;;;;;;102.28;42.45;;;7.70;99.90;;;;;;6297075;28;20049;-81
2024/03/11 04:07:53;;;;;;;103.07;43.28;;;7.70;99.90;;;;;;6295625;28;20063;-81
2024/03/11 04:10:55;;;;;;;107.05;42.20;;;7.80;99.90;;;;;;6291788;28;20169;-81
2024/03/11 04:13:57;;;;;;;106.03;42.95;;;7.70;99.90;;;;;;6270024;28;20416;-82
2024/03/11 04:16:59;;;;;;;107.40;43.67;;;7.70;99.90;;;;;;6295325;28;20059;-81
2024/03/11 04:20:09;;;;;;;102.82;43.65;;;7.70;99.90;;;;;;6295658;28;20052;-81
2024/03/11 04:23:12;;;;;;;99.47;41.30;;;7.70;99.90;;;;;;6270662;28;20451;-81
2024/03/11 04:26:14;;;;;;;105.22;42.15;;;7.70;99.90;;;;;;6295203;28;20056;-80
2024/03/11 04:29:15;;;;;;;99.28;41.55;;;7.70;99.90;;;;;;6268315;28;20096;-81
2024/03/11 04:32:17;;;;;;;95.90;40.83;;;7.70;99.90;;;;;;6277571;28;20125;-80
2024/03/11 04:35:19;;;;;;;103.60;41.75;;;7.80;99.90;;;;;;6277519;28;20080;-81
2024/03/11 04:38:20;;;;;;;97.07;39.65;;;7.90;99.90;;;;;;6296342;28;20059;-80
2024/03/11 04:41:22;;;;;;;104.72;42.38;;;7.80;99.90;;;;;;6277483;28;20174;-81
2024/03/11 04:44:24;;;;;;;99.97;41.95;;;7.90;99.90;;;;;;6281099;28;20061;-80
2024/03/11 04:47:26;;;;;;;102.45;41.78;;;7.80;99.90;;;;;;6294839;28;20095;-81
2024/03/11 04:50:29;;;;;;;97.00;40.83;;;7.80;99.90;;;;;;6294555;28;20109;-81
2024/03/11 04:53:31;;;;;;;106.32;41.78;;;7.80;99.90;;;;;;6295189;28;20057;-81
2024/03/11 04:56:34;;;;;;;105.53;42.13;;;7.90;99.90;;;;;;6286728;28;20056;-83
2024/03/11 04:59:35;;;;;;;98.53;40.67;;;7.90;99.90;;;;;;6276934;28;20052;-81
2024/03/11 05:02:39;;;;;;;97.25;39.78;;;7.80;99.90;;;;;;6297712;28;20104;-81
2024/03/11 05:05:41;;;;;;;96.00;39.00;;;7.80;99.90;;;;;;6295420;28;20059;-81
2024/03/11 05:08:43;;;;;;;101.28;40.40;;;7.80;99.90;;;;;;6276987;28;20075;-81
2024/03/11 05:11:44;;;;;;;94.30;40.53;;;7.80;99.90;;;;;;6299609;28;20059;-81
2024/03/11 05:14:46;;;;;;;94.60;41.22;;;7.80;99.90;;;;;;6288287;28;20043;-80
2024/03/11 05:17:49;;;;;;;101.18;39.97;;;7.90;99.90;;;;;;6288017;28;20548;-81
2024/03/11 05:20:50;;;;;;;93.57;39.85;;;7.80;99.90;;;;;;6294989;28;20496;-81
2024/03/11 05:23:52;;;;;;;97.05;40.70;;;7.80;99.90;;;;;;6294305;28;20048;-80
2024/03/11 05:26:54;;;;;;;94.93;40.22;;;7.80;99.90;;;;;;6294569;28;20393;-81
2024/03/11 05:29:55;;;;;;;96.82;40.83;;;7.80;99.90;;;;;;6260002;28;20059;-81
2024/03/11 05:32:57;;;;;;;104.38;41.60;;;7.90;99.90;;;;;;6296202;28;20059;-81
2024/03/11 05:35:59;;;;;;;94.22;39.28;;;7.80;99.90;;;;;;6298268;28;20053;-81
2024/03/11 05:39:01;;;;;;;98.65;41.90;;;7.80;99.90;;;;;;6277208;28;20057;-80
2024/03/11 05:42:04;;;;;;;100.53;39.85;;;7.80;99.90;;;;;;6296552;28;20056;-81
2024/03/11 05:45:06;;;;;;;92.78;40.53;;;7.90;99.90;;;;;;6275437;28;20079;-82
2024/03/11 05:48:09;;;;;;;96.80;40.58;;;7.90;99.90;;;;;;6300765;28;20048;-81
2024/03/11 05:51:11;;;;;;;103.43;40.22;;;7.90;99.90;;;;;;6276017;28;20149;-81
2024/03/11 05:54:17;;;;;;;97.50;40.97;;;7.90;99.90;;;;;;6293539;28;20044;-81
2024/03/11 05:57:33;;;;;;;95.18;40.42;;;7.90;99.90;;;;;;6267392;28;20056;-82
2024/03/11 06:00:36;;;;;;;97.47;39.83;;;7.90;99.90;;;;;;6290808;28;20446;-82
2024/03/11 06:03:38;;;;;;;96.80;40.42;;;7.90;99.90;;;;;;6251157;28;20154;-82
2024/03/11 06:06:39;;;;;;;100.50;41.22;;;7.90;99.90;;;;;;6293312;28;20045;-82
2024/03/11 06:09:41;;;;;;;95.35;40.70;;;7.80;99.90;;;;;;6275387;28;20139;-81
2024/03/11 06:12:43;;;;;;;97.47;41.25;;;7.90;99.90;;;;;;6275047;28;20052;-81
2024/03/11 06:15:45;;;;;;;105.18;42.30;;;7.90;99.90;;;;;;6275341;28;20468;-82
2024/03/11 06:18:47;;;;;;;97.85;39.63;;;7.90;99.90;;;;;;6268421;28;20053;-82
2024/03/11 06:21:48;;;;;;;100.93;41.75;;;7.90;99.90;;;;;;6274909;28;20139;-82
2024/03/11 06:24:50;;;;;;;95.07;41.10;;;7.80;99.90;;;;;;6293260;28;20143;-82
2024/03/11 06:27:54;;;;;;;103.68;42.30;;;7.90;99.90;;;;;;6291420;28;20060;-82
2024/03/11 06:31:01;;;;;;;101.97;41.33;;;7.80;99.90;;;;;;6298376;28;20559;-82
2024/03/11 06:34:03;;;;;;;104.55;42.97;;;7.80;99.90;;;;;;6298640;28;20499;-82
2024/03/11 06:37:04;;;;;;;105.63;41.40;;;7.80;99.90;;;;;;6298288;28;20052;-82
2024/03/11 06:40:06;;;;;;;114.65;42.85;;;7.80;99.90;;;;;;6280391;28;20056;-82
2024/03/11 06:43:08;;;;;;;112.00;43.60;;;7.80;99.90;;;;;;6279958;28;20547;-82
2024/03/11 06:46:10;;;;;;;112.93;44.13;;;7.80;99.90;;;;;;6297928;28;20461;-82
2024/03/11 06:49:13;;;;;;;113.25;43.88;;;7.90;99.90;;;;;;6316226;28;20419;-82
2024/03/11 06:52:16;;;;;;;111.22;43.85;;;7.90;99.90;;;;;;6298484;28;20059;-83
2024/03/11 06:55:18;;;;;;;104.00;43.45;;;7.90;99.90;;;;;;6297902;28;20056;-82
2024/03/11 06:58:19;;;;;;;107.25;42.83;;;7.80;99.90;;;;;;6287477;28;20056;-83
2024/03/11 07:01:21;;;;;;;108.05;43.95;;;7.80;99.90;;;;;;6279892;28;20045;-82
2024/03/11 07:04:23;;;;;;;104.15;41.95;;;7.90;99.90;;;;;;6280480;28;20145;-82
2024/03/11 07:07:25;;;;;;;106.43;42.78;;;7.90;99.90;;;;;;6280086;28;20050;-82
2024/03/11 07:10:28;;;;;;;96.13;40.45;;;7.90;99.90;;;;;;6283214;28;20151;-82
2024/03/11 07:13:31;;;;;;;100.05;41.58;;;7.90;99.90;;;;;;6292842;28;20051;-81
2024/03/11 07:16:33;;;;;;;97.05;41.67;;;7.80;99.90;;;;;;6296290;28;20059;-82
2024/03/11 07:19:38;;;;;;;96.45;41.25;;;7.80;99.90;;;;;;6316180;28;20048;-82
2024/03/11 07:22:40;;;;;;;99.45;41.08;;;7.80;99.90;;;;;;6276752;28;20072;-83
2024/03/11 07:25:43;;;;;;;98.75;42.78;;;7.80;99.90;;;;;;6304079;28;20135;-83
2024/03/11 07:28:45;;;;;;;99.63;41.53;;;7.90;99.90;;;;;;6262884;28;20052;-83
2024/03/11 07:31:47;;;;;;;96.53;39.63;;;7.90;99.90;;;;;;6280034;28;20059;-84
2024/03/11 07:34:50;;;;;;;99.75;40.20;;;7.80;99.90;;;;;;6297018;28;20056;-83
2024/03/11 07:37:51;;;;;;;91.95;39.22;;;7.90;99.90;;;;;;6278399;28;20202;-84
2024/03/11 07:40:53;;;;;;;104.80;40.00;;;7.90;99.90;;;;;;6278964;28;20044;-84
2024/03/11 07:43:55;;;;;;;95.10;39.08;;;7.90;99.90;;;;;;6260216;28;20518;-84
2024/03/11 07:46:57;;;;;;;94.30;39.38;;;7.90;99.90;;;;;;6294997;28;20071;-84
2024/03/11 07:49:59;;;;;;;93.28;38.78;;;7.90;99.90;;;;;;6278771;28;20068;-83
2024/03/11 07:53:00;;;;;;;94.97;39.53;;;7.90;99.90;;;;;;6297870;28;20518;-83
2024/03/11 07:56:04;;;;;;;96.53;39.45;;;7.90;99.90;;;;;;6278889;28;20048;-83
2024/03/11 07:59:06;;;;;;;90.75;39.22;;;7.90;99.90;;;;;;6278471;28;20087;-83
2024/03/11 08:02:08;;;;;;;92.57;40.17;;;7.90;99.90;;;;;;6296341;28;20049;-83
2024/03/11 08:05:13;;;;;;;87.75;38.05;;;8.00;99.90;;;;;;6278249;28;20056;-84
2024/03/11 08:08:17;;;;;;;94.20;38.58;;;8.00;99.90;;;;;;6253343;28;20137;-83
2024/03/11 08:11:19;;;;;;;87.53;38.58;;;8.00;99.90;;;;;;6277947;28;20045;-83
2024/03/11 08:14:21;;;;;;;84.47;37.45;;;8.00;99.90;;;;;;6267490;28;20103;-83
2024/03/11 08:17:23;;;;;;;89.88;36.78;;;7.90;99.90;;;;;;6292274;28;20067;-82
2024/03/11 08:20:26;;;;;;;79.93;36.35;;;7.90;99.90;;;;;;6295395;28;20044;-82
2024/03/11 08:23:28;;;;;;;81.25;35.60;;;8.00;99.90;;;;;;6295008;28;20073;-82
2024/03/11 08:26:30;;;;;;;81.13;35.47;;;8.00;99.90;;;;;;6278834;28;20044;-84
2024/03/11 08:29:32;;;;;;;81.82;36.20;;;8.00;99.90;;;;;;6257999;28;20090;-83
2024/03/11 08:32:34;;;;;;;86.15;37.15;;;8.00;99.90;;;;;;6277204;28;20056;-82
2024/03/11 08:35:36;;;;;;;86.50;36.30;;;8.00;99.90;;;;;;6276398;28;20532;-84
2024/03/11 08:38:38;;;;;;;84.15;36.25;;;8.00;99.90;;;;;;6295018;28;20059;-84
2024/03/11 08:41:39;;;;;;;82.80;36.22;;;8.00;99.90;;;;;;6276567;28;20140;-84
2024/03/11 08:44:43;;;;;;;84.63;35.78;;;8.10;99.90;;;;;;6276823;28;20444;-85
2024/03/11 08:47:45;;;;;;;86.68;35.35;;;8.00;99.90;;;;;;6295241;28;20135;-86
2024/03/11 08:50:48;;;;;;;84.57;35.90;;;8.00;99.90;;;;;;6276452;28;20054;-84
2024/03/11 08:53:49;;;;;;;84.00;36.00;;;8.10;99.90;;;;;;6294913;28;20056;-83
2024/03/11 08:56:51;;;;;;;88.97;36.47;;;8.10;99.90;;;;;;6294889;28;20488;-83
2024/03/11 08:59:54;;;;;;;81.65;35.55;;;8.00;99.90;;;;;;6276888;28;20048;-84
2024/03/11 09:02:55;;;;;;;87.18;37.72;;;8.00;99.90;;;;;;6276070;28;20048;-84
2024/03/11 09:05:58;;;;;;;85.25;37.17;;;8.00;99.90;;;;;;6276223;28;20079;-85
2024/03/11 09:09:02;;;;;;;86.22;36.45;;;8.00;99.90;;;;;;6275864;28;20052;-83
2024/03/11 09:12:05;;;;;;;85.65;36.38;;;8.00;99.90;;;;;;6276113;28;20055;-84
2024/03/11 09:15:12;;;;;;;84.57;35.88;;;8.10;99.90;;;;;;6257701;28;20056;-84
2024/03/11 09:18:15;;;;;;;87.68;36.60;;;8.00;99.90;;;;;;6318064;28;20079;-87
2024/03/11 09:21:21;;;;;;;78.05;34.58;;;8.10;99.90;;;;;;6321780;28;20044;-84
2024/03/11 09:24:24;;;;;;;85.95;36.13;;;8.20;99.90;;;;;;6273129;28;20510;-90
2024/03/11 09:27:26;;;;;;;83.47;34.72;;;8.20;99.90;;;;;;6254095;28;20496;-90
2024/03/11 09:30:32;;;;;;;81.47;36.55;;;8.10;99.90;;;;;;6234152;28;20420;-84
2024/03/11 09:33:34;;;;;;;81.75;36.13;;;8.10;99.90;;;;;;6252477;28;20048;-84
2024/03/11 09:36:36;;;;;;;80.95;35.33;;;8.10;99.90;;;;;;6255763;28;20235;-89
2024/03/11 09:39:38;;;;;;;96.13;35.45;;;8.10;99.90;;;;;;6288048;28;20159;-89
2024/03/11 09:42:40;;;;;;;91.25;36.75;;;8.20;99.90;;;;;;6283008;28;20071;-86
2024/03/11 09:45:42;;;;;;;97.45;37.33;;;8.20;99.90;;;;;;6272065;28;20060;-85
2024/03/11 09:48:44;;;;;;;80.70;35.20;;;8.20;99.90;;;;;;6279550;28;20498;-91
2024/03/11 09:51:46;;;;;;;78.03;34.63;;;8.30;99.90;;;;;;6282081;28;20067;-84
2024/03/11 09:54:48;;;;;;;83.35;35.35;;;8.30;99.90;;;;;;6271801;28;20186;-93
2024/03/11 09:57:50;;;;;;;78.32;34.33;;;8.30;99.90;;;;;;6284258;28;20060;-89
2024/03/11 10:00:55;;;;;;;81.15;35.38;;;8.30;99.90;;;;;;6272128;28;20053;-93
2024/03/11 10:04:01;;;;;;;87.22;35.63;;;8.30;99.90;;;;;;6272820;28;20073;-91
2024/03/11 10:07:08;;;;;;;84.75;35.63;;;8.30;99.90;;;;;;6278753;28;20162;-88
2024/03/11 10:10:14;;;;;;;89.88;36.38;;;8.30;99.90;;;;;;6283796;28;20052;-91
2024/03/11 10:13:15;;;;;;;84.82;35.90;;;8.40;99.90;;;;;;6240057;28;20335;-89
2024/03/11 10:16:30;;;;;;;83.03;35.00;;;8.30;99.90;;;;;;6295002;28;20495;-89
2024/03/11 10:19:31;;;;;;;90.47;35.05;;;8.30;99.90;;;;;;6274377;28;20060;-84
2024/03/11 10:22:37;;;;;;;87.90;36.85;;;8.30;99.90;;;;;;6309709;28;20044;-89
2024/03/11 10:25:40;;;;;;;83.32;34.85;;;8.30;99.90;;;;;;6279068;28;20052;-87
2024/03/11 10:28:44;;;;;;;84.80;37.22;;;8.40;99.90;;;;;;6263453;28;20052;-90
2024/03/11 10:31:47;;;;;;;85.82;36.97;;;8.40;99.90;;;;;;6283066;28;20056;-84
2024/03/11 10:34:49;;;;;;;87.32;37.10;;;8.40;99.90;;;;;;6276924;28;20491;-85
2024/03/11 10:37:51;;;;;;;87.35;35.45;;;8.30;99.90;;;;;;6293558;28;20052;-86
2024/03/11 10:40:53;;;;;;;84.97;35.05;;;8.40;99.90;;;;;;6275596;28;20055;-84
2024/03/11 10:43:55;;;;;;;86.22;36.78;;;8.40;99.90;;;;;;6267443;28;20059;-85
2024/03/11 10:47:02;;;;;;;92.97;35.33;;;8.50;99.90;;;;;;6277463;28;20060;-87
2024/03/11 10:50:03;;;;;;;86.18;35.47;;;8.40;99.90;;;;;;6271422;28;20052;-90
2024/03/11 10:53:06;;;;;;;87.93;36.97;;;8.50;99.90;;;;;;6303831;28;20048;-85
2024/03/11 10:56:09;;;;;;;87.20;36.53;;;8.40;99.90;;;;;;6270089;28;20056;-88
2024/03/11 10:59:15;;;;;;;80.85;34.38;;;8.40;99.90;;;;;;6263245;28;20467;-90
2024/03/11 11:02:19;;;;;;;84.65;34.70;;;8.40;99.90;;;;;;6270908;28;20056;-87
2024/03/11 11:05:21;;;;;;;77.57;34.35;;;8.50;99.90;;;;;;6305362;28;20053;-91
2024/03/11 11:08:26;;;;;;;84.88;36.50;;;8.40;99.90;;;;;;6291005;28;20075;-91
2024/03/11 11:11:28;;;;;;;90.43;35.28;;;8.30;99.90;;;;;;6282179;28;20547;-88
2024/03/11 11:14:29;;;;;;;83.18;35.35;;;8.40;99.90;;;;;;6247565;28;20393;-87
2024/03/11 11:17:31;;;;;;;92.25;35.17;;;8.40;99.90;;;;;;6294154;28;20055;-91
2024/03/11 11:20:38;;;;;;;83.78;34.58;;;8.40;99.90;;;;;;6289237;28;20156;-90
2024/03/11 11:23:41;;;;;;;87.38;34.85;;;8.40;99.90;;;;;;6288963;28;20056;-89
2024/03/11 11:26:43;;;;;;;84.80;35.85;;;8.50;99.90;;;;;;6285221;28;20439;-88
2024/03/11 11:29:46;;;;;;;83.38;35.53;;;8.40;99.90;;;;;;6279357;28;20062;-91
2024/03/11 11:32:49;;;;;;;81.68;35.15;;;8.50;99.90;;;;;;6283408;28;20052;-91
2024/03/11 11:35:51;;;;;;;92.60;35.22;;;8.40;99.90;;;;;;6287140;28;20052;-82
2024/03/11 11:38:53;;;;;;;86.65;35.30;;;8.50;99.90;;;;;;6295934;28;20347;-82
2024/03/11 11:41:57;;;;;;;87.55;35.10;;;8.50;99.90;;;;;;6296380;28;20059;-82
2024/03/11 11:44:59;;;;;;;91.68;35.40;;;8.50;99.90;;;;;;6260135;28;20102;-87
2024/03/11 11:48:01;;;;;;;77.28;33.22;;;8.50;99.90;;;;;;6301335;28;20551;-88
2024/03/11 11:51:06;;;;;;;86.25;33.67;;;8.60;99.90;;;;;;6303049;28;20056;-91
2024/03/11 11:54:08;;;;;;;79.40;35.97;;;8.60;99.90;;;;;;6256786;28;20523;-88
2024/03/11 11:57:17;;;;;;;80.70;33.95;;;8.50;99.90;;;;;;6290156;28;20133;-89
2024/03/11 12:00:20;;;;;;;94.55;43.20;;;8.60;99.90;;;;;;6288358;28;20052;-87
2024/03/11 12:03:30;;;;;;;86.50;38.70;;;8.60;99.90;;;;;;6258331;28;20049;-88
2024/03/11 12:06:33;;;;;;;87.82;37.72;;;8.70;99.90;;;;;;6284409;28;20094;-88
2024/03/11 12:09:35;;;;;;;91.22;37.03;;;8.70;99.90;;;;;;6277150;28;20055;-92
2024/03/11 12:12:43;;;;;;;84.80;37.47;;;8.60;99.90;;;;;;6273237;28;20080;-89
2024/03/11 12:15:46;;;;;;;71.15;32.70;;;8.60;99.90;;;;;;6260857;28;20078;-87
2024/03/11 12:18:48;;;;;;;81.53;34.55;;;8.70;99.90;;;;;;6298221;28;20053;-91
2024/03/11 12:21:50;;;;;;;79.97;34.10;;;8.70;99.90;;;;;;6298137;28;20052;-87
2024/03/11 12:24:52;;;;;;;81.13;32.80;;;8.70;99.90;;;;;;6278442;28;20129;-86
2024/03/11 12:27:53;;;;;;;83.97;33.17;;;8.80;99.90;;;;;;6296704;28;20459;-89
2024/03/11 12:31:08;;;;;;;74.30;31.42;;;8.70;99.90;;;;;;6281670;28;20431;-86
2024/03/11 12:34:12;;;;;;;70.30;31.27;;;8.70;99.90;;;;;;6255555;28;20055;-90
2024/03/11 12:37:16;;;;;;;71.80;31.33;;;8.80;99.90;;;;;;6272663;28;20052;-88
2024/03/11 12:40:21;;;;;;;68.53;30.90;;;8.80;99.90;;;;;;6272750;28;20393;-88
2024/03/11 12:43:23;;;;;;;68.72;31.42;;;8.90;99.90;;;;;;6259104;28;20063;-88
2024/03/11 12:46:25;;;;;;;67.72;29.85;;;8.90;99.90;;;;;;6278720;28;20060;-88
2024/03/11 12:49:30;;;;;;;62.88;29.17;;;9.00;99.90;;;;;;6279523;28;20500;-88
2024/03/11 12:52:34;;;;;;;68.68;29.60;;;8.90;99.90;;;;;;6279132;28;20086;-88
2024/03/11 12:55:36;;;;;;;70.63;30.33;;;8.90;99.90;;;;;;6280930;28;20064;-87
2024/03/11 12:58:39;;;;;;;71.50;30.05;;;8.90;99.90;;;;;;6262149;28;20048;-88
2024/03/11 13:01:42;;;;;;;65.13;29.85;;;8.80;99.90;;;;;;6280285;28;20396;-88
2024/03/11 13:04:43;;;;;;;69.32;30.73;;;8.90;99.90;;;;;;6296720;28;20067;-87
2024/03/11 13:07:45;;;;;;;71.80;31.10;;;8.90;99.90;;;;;;6277081;28;20053;-88
2024/03/11 13:10:48;;;;;;;65.90;31.42;;;9.00;99.90;;;;;;6279383;28;20056;-88
2024/03/11 13:13:51;;;;;;;68.10;31.67;;;9.10;99.90;;;;;;6296332;28;20064;-88
2024/03/11 13:16:56;;;;;;;70.15;30.67;;;9.00;99.90;;;;;;6296572;28;20053;-87
2024/03/11 13:19:58;;;;;;;75.60;30.73;;;9.00;99.90;;;;;;6278921;28;20053;-87
2024/03/11 13:23:00;;;;;;;68.72;30.23;;;9.10;99.90;;;;;;6296619;28;20060;-88
2024/03/11 13:26:02;;;;;;;66.45;29.83;;;9.00;99.90;;;;;;6296420;28;20400;-88
2024/03/11 13:29:04;;;;;;;71.60;30.30;;;9.00;99.90;;;;;;6259919;28;20536;-88
2024/03/11 13:32:07;;;;;;;71.30;29.85;;;8.90;99.90;;;;;;6278784;28;20063;-89
2024/03/11 13:35:09;;;;;;;66.55;29.60;;;8.90;99.90;;;;;;6295441;28;20052;-87
2024/03/11 13:38:12;;;;;;;64.93;29.83;;;8.90;99.90;;;;;;6277677;28;20060;-88
2024/03/11 13:41:14;;;;;;;67.07;28.48;;;9.00;99.90;;;;;;6278533;28;20507;-89
2024/03/11 13:44:20;;;;;;;67.65;28.65;;;9.20;99.90;;;;;;6285468;28;20117;-90
2024/03/11 13:47:23;;;;;;;62.92;28.83;;;9.30;99.90;;;;;;6253473;28;20525;-84
2024/03/11 13:50:26;;;;;;;69.25;29.92;;;9.40;99.90;;;;;;6280638;28;20121;-89
2024/03/11 13:53:28;;;;;;;60.40;28.92;;;9.40;99.90;;;;;;6513346;22;20560;-87
2024/03/11 13:56:30;;;;;;;64.78;29.65;;;9.50;99.90;;;;;;6276774;28;20048;-87
2024/03/11 13:59:32;;;;;;;67.78;30.08;;;9.50;99.90;;;;;;6279774;28;20075;-89
2024/03/11 14:02:34;;;;;;;71.28;31.20;;;9.40;99.90;;;;;;6252424;28;20049;-88
2024/03/11 14:05:36;;;;;;;60.25;29.55;;;9.50;99.90;;;;;;6296122;28;20063;-88
2024/03/11 14:08:38;;;;;;;61.15;29.40;;;9.50;99.90;;;;;;6256116;28;20413;-90
2024/03/11 14:11:42;;;;;;;67.72;29.73;;;9.50;99.90;;;;;;6297900;28;20068;-88
2024/03/11 14:14:44;;;;;;;60.78;29.40;;;9.60;99.90;;;;;;6260055;28;20500;-86
2024/03/11 14:17:45;;;;;;;66.50;30.08;;;9.50;99.90;;;;;;6276351;28;20049;-89
2024/03/11 14:20:47;;;;;;;62.83;29.80;;;9.40;99.90;;;;;;6256277;28;20064;-91
2024/03/11 14:23:49;;;;;;;66.07;29.65;;;9.40;99.90;;;;;;6276452;28;20056;-86
2024/03/11 14:26:51;;;;;;;59.72;29.58;;;9.30;99.90;;;;;;6276842;28;20060;-84
2024/03/11 14:29:53;;;;;;;60.17;29.38;;;9.30;99.90;;;;;;6252668;28;20053;-87
2024/03/11 14:32:56;;;;;;;65.55;30.30;;;9.40;99.90;;;;;;6277860;28;20053;-88
2024/03/11 14:35:58;;;;;;;61.90;29.17;;;9.40;99.90;;;;;;6294337;28;20087;-83
2024/03/11 14:39:01;;;;;;;65.75;30.30;;;9.30;99.90;;;;;;6226305;28;20132;-89
2024/03/11 14:42:02;;;;;;;65.22;30.10;;;9.40;99.90;;;;;;6296004;28;20054;-87
2024/03/11 14:45:04;;;;;;;68.68;30.55;;;9.30;99.90;;;;;;6247308;28;20344;-86
2024/03/11 14:48:12;;;;;;;69.15;30.48;;;9.20;99.90;;;;;;6276633;28;20063;-88
2024/03/11 14:51:16;;;;;;;68.65;31.05;;;9.20;99.90;;;;;;6249499;28;20053;-85
2024/03/11 14:54:21;;;;;;;69.22;30.30;;;9.20;99.90;;;;;;6296006;28;20065;-85
2024/03/11 14:57:26;;;;;;;66.75;29.85;;;9.20;99.90;;;;;;6286373;28;20053;-88
2024/03/11 15:00:35;;;;;;;70.25;29.10;;;9.10;99.90;;;;;;6248720;28;20144;-86
2024/03/11 15:03:37;;;;;;;65.50;28.63;;;9.10;99.90;;;;;;6248656;28;20416;-84
2024/03/11 15:06:39;;;;;;;63.72;28.70;;;9.10;99.90;;;;;;6283581;28;20491;-92
2024/03/11 15:09:42;;;;;;;62.13;27.38;;;9.10;99.90;;;;;;6299090;28;20060;-85
2024/03/11 15:12:44;;;;;;;59.55;27.05;;;9.10;99.90;;;;;;6252954;28;20412;-84
2024/03/11 15:15:46;;;;;;;66.68;27.58;;;9.00;99.90;;;;;;6269921;28;20056;-86
2024/03/11 15:18:52;;;;;;;61.15;26.45;;;9.10;99.90;;;;;;6235853;28;20061;-87
2024/03/11 15:21:55;;;;;;;63.33;26.27;;;9.10;99.90;;;;;;6258327;28;20056;-84
2024/03/11 15:24:57;;;;;;;57.58;26.50;;;9.10;99.90;;;;;;6280990;28;20083;-85
2024/03/11 15:27:59;;;;;;;54.25;24.73;;;9.10;99.90;;;;;;6295892;28;20048;-88
2024/03/11 15:31:04;;;;;;;50.85;24.77;;;9.00;99.90;;;;;;6264033;28;20082;-85
2024/03/11 15:34:05;;;;;;;59.45;24.77;;;9.00;99.90;;;;;;6279327;28;20051;-84
2024/03/11 15:37:07;;;;;;;54.28;25.10;;;9.00;99.90;;;;;;6272716;28;20060;-89